Time;durP1;ratioP1;P1;durP2;ratioP2;P2;SDS_P1;SDS_P2;PMS_P1;PMS_P2;Temp;Humidity;BMP_temperature;BMP_pressure;BME280_temperature;BME280_humidity;BME280_pressure;Samples;Min_cycle;Max_cycle;Signal;HPM_P1;HPM_P2
2023/09/27 00:00:15;;;;;;;3.33;3.07;;;;;;;17.51;59.44;101766.56;5037616;27;97482;-55
2023/09/27 00:02:45;;;;;;;2.70;2.60;;;;;;;17.50;59.34;101771.38;5036239;27;97818;-56
2023/09/27 00:05:11;;;;;;;2.70;2.60;;;;;;;17.50;59.50;101785.28;5039611;27;97087;-56
2023/09/27 00:07:41;;;;;;;3.40;3.20;;;;;;;17.53;59.58;101781.50;5033022;27;96633;-57
2023/09/27 00:10:11;;;;;;;7.10;3.60;;;;;;;17.53;59.42;101789.84;5032338;27;96788;-56
2023/09/27 00:12:37;;;;;;;2.93;2.73;;;;;;;17.55;59.57;101784.50;5035297;27;97369;-56
2023/09/27 00:15:03;;;;;;;2.40;2.30;;;;;;;17.56;59.45;101786.00;5034291;27;97092;-56
2023/09/27 00:17:29;;;;;;;3.47;2.70;;;;;;;17.55;59.52;101787.31;5032876;27;96645;-55
2023/09/27 00:19:55;;;;;;;3.00;2.70;;;;;;;17.53;59.59;101798.19;5035173;27;96762;-56
2023/09/27 00:22:21;;;;;;;2.83;2.63;;;;;;;17.54;59.64;101810.09;5035169;27;97641;-56
2023/09/27 00:24:46;;;;;;;2.50;2.30;;;;;;;17.53;59.60;101803.00;5032555;27;97032;-55
2023/09/27 00:27:12;;;;;;;2.93;2.73;;;;;;;17.51;59.68;101797.94;5036504;27;97424;-55
2023/09/27 00:29:37;;;;;;;3.20;3.00;;;;;;;17.50;59.58;101810.34;5038335;27;97256;-56
2023/09/27 00:32:03;;;;;;;2.43;2.33;;;;;;;17.49;59.53;101808.81;5037093;27;97854;-55
2023/09/27 00:34:28;;;;;;;3.17;2.87;;;;;;;17.48;59.43;101801.72;5034389;27;96894;-56
2023/09/27 00:36:54;;;;;;;2.73;2.63;;;;;;;17.46;59.26;101809.81;5034485;27;97194;-56
2023/09/27 00:39:19;;;;;;;2.77;2.63;;;;;;;17.43;59.41;101805.25;5034119;27;97288;-56
2023/09/27 00:41:44;;;;;;;2.93;2.83;;;;;;;17.39;59.29;101796.44;5033421;27;110372;-56
2023/09/27 00:44:10;;;;;;;3.07;2.87;;;;;;;17.33;59.46;101776.22;5035453;27;97022;-55
2023/09/27 00:46:35;;;;;;;2.70;2.50;;;;;;;17.27;59.62;101767.16;5036154;27;98340;-56
2023/09/27 00:49:01;;;;;;;2.80;2.70;;;;;;;17.25;59.73;101766.91;5032735;27;97192;-55
2023/09/27 00:51:27;;;;;;;3.37;3.07;;;;;;;17.25;59.77;101772.47;5036304;27;96975;-56
2023/09/27 00:53:54;;;;;;;3.23;3.03;;;;;;;17.23;59.72;101772.97;5038537;27;97180;-55
2023/09/27 00:56:20;;;;;;;2.70;2.50;;;;;;;17.20;59.70;101776.78;5032732;27;97090;-55
2023/09/27 00:58:46;;;;;;;4.67;2.70;;;;;;;17.19;59.70;101780.06;5032946;27;97490;-55
2023/09/27 01:01:12;;;;;;;2.77;2.60;;;;;;;17.14;59.76;101778.84;5031105;27;96747;-56
2023/09/27 01:03:38;;;;;;;2.53;2.33;;;;;;;17.09;59.81;101776.06;5034509;27;96838;-55
2023/09/27 01:06:03;;;;;;;4.57;3.23;;;;;;;17.05;59.90;101779.13;5033945;27;96723;-55
2023/09/27 01:08:29;;;;;;;3.33;3.13;;;;;;;17.06;59.99;101779.84;5036081;27;96953;-55
2023/09/27 01:10:55;;;;;;;3.47;3.27;;;;;;;17.03;60.04;101769.78;5030573;27;97360;-55
2023/09/27 01:13:20;;;;;;;3.53;2.93;;;;;;;17.02;59.97;101759.91;5032876;27;97451;-55
2023/09/27 01:15:46;;;;;;;2.60;2.50;;;;;;;17.01;59.89;101763.97;5033695;27;97055;-55
2023/09/27 01:18:11;;;;;;;3.20;2.90;;;;;;;17.01;60.03;101766.75;5034720;27;96688;-55
2023/09/27 01:20:37;;;;;;;5.83;3.00;;;;;;;16.98;59.88;101768.53;5033377;27;97766;-56
2023/09/27 01:23:05;;;;;;;3.67;2.83;;;;;;;16.94;59.95;101775.59;5034880;27;97050;-55
2023/09/27 01:25:33;;;;;;;3.30;2.77;;;;;;;16.92;59.96;101770.56;5031939;27;97117;-55
2023/09/27 01:27:59;;;;;;;3.00;2.80;;;;;;;16.91;59.90;101771.81;5033471;27;96970;-55
2023/09/27 01:30:25;;;;;;;2.87;2.77;;;;;;;16.89;59.82;101773.59;5034081;27;97011;-56
2023/09/27 01:32:51;;;;;;;3.87;3.57;;;;;;;16.86;59.92;101777.41;5031906;27;97247;-56
2023/09/27 01:35:17;;;;;;;2.80;2.63;;;;;;;16.80;60.03;101771.84;5032156;27;96753;-55
2023/09/27 01:37:42;;;;;;;2.87;2.63;;;;;;;16.77;59.99;101774.88;5033471;27;97149;-56
2023/09/27 01:40:15;;;;;;;3.03;2.83;;;;;;;16.72;60.06;101776.41;5036355;27;97364;-56
2023/09/27 01:42:43;;;;;;;4.00;3.00;;;;;;;16.72;60.03;101781.22;5034095;27;97229;-56
2023/09/27 01:45:15;;;;;;;2.93;2.63;;;;;;;16.69;60.02;101777.41;5035646;27;96739;-55
2023/09/27 01:47:40;;;;;;;3.43;3.23;;;;;;;16.67;60.00;101777.16;5035654;27;97239;-55
2023/09/27 01:50:07;;;;;;;3.10;2.90;;;;;;;16.68;60.04;101778.69;5029664;27;109520;-56
2023/09/27 01:52:33;;;;;;;3.00;2.80;;;;;;;16.63;60.05;101785.00;5031888;27;97126;-56
2023/09/27 01:54:58;;;;;;;3.27;3.07;;;;;;;16.59;60.04;101789.31;5034428;27;96729;-55
2023/09/27 01:57:23;;;;;;;3.20;3.00;;;;;;;16.54;60.12;101790.06;5031491;27;97300;-56
2023/09/27 01:59:49;;;;;;;3.00;2.80;;;;;;;16.51;60.17;101800.19;5033814;27;109038;-56
2023/09/27 02:02:14;;;;;;;3.17;2.97;;;;;;;16.51;60.08;101777.19;5034629;27;97095;-55
2023/09/27 02:04:39;;;;;;;3.10;2.90;;;;;;;16.47;59.88;101783.72;5033580;27;96986;-55
2023/09/27 02:07:05;;;;;;;3.20;3.00;;;;;;;16.44;60.21;101790.31;5036535;27;97812;-55
2023/09/27 02:09:30;;;;;;;3.20;3.00;;;;;;;16.42;60.20;101780.97;5034048;27;111937;-55
2023/09/27 02:11:55;;;;;;;2.87;2.77;;;;;;;16.43;60.05;101788.78;5033823;27;105319;-56
2023/09/27 02:14:20;;;;;;;3.40;3.20;;;;;;;16.40;60.11;101778.66;5034341;27;103521;-55
2023/09/27 02:16:47;;;;;;;3.10;2.90;;;;;;;16.37;60.08;101785.25;5034329;27;96749;-55
2023/09/27 02:19:12;;;;;;;3.00;2.90;;;;;;;16.37;60.08;101796.38;5034470;27;97339;-55
2023/09/27 02:21:38;;;;;;;3.33;3.13;;;;;;;16.34;59.98;101786.25;5034436;27;97212;-55
2023/09/27 02:24:05;;;;;;;3.37;3.17;;;;;;;16.32;59.98;101788.00;5030483;27;97310;-55
2023/09/27 02:26:30;;;;;;;3.87;2.97;;;;;;;16.30;60.04;101788.53;5031589;27;96673;-56
2023/09/27 02:28:55;;;;;;;3.00;2.80;;;;;;;16.27;60.12;101786.00;5029401;27;109088;-55
2023/09/27 02:31:21;;;;;;;3.07;2.87;;;;;;;16.23;60.04;101793.81;5033990;27;97515;-55
2023/09/27 02:33:46;;;;;;;3.20;3.00;;;;;;;16.19;60.08;101794.06;5035244;27;97165;-55
2023/09/27 02:36:11;;;;;;;3.23;3.03;;;;;;;16.16;60.03;101799.88;5036718;27;96644;-55
2023/09/27 02:38:37;;;;;;;3.63;3.43;;;;;;;16.13;60.01;101804.41;5034535;27;97585;-55
2023/09/27 02:41:03;;;;;;;3.43;3.17;;;;;;;16.07;60.03;101803.66;5034100;27;97028;-55
2023/09/27 02:43:28;;;;;;;3.40;3.20;;;;;;;15.99;60.08;101790.78;5030865;27;97052;-55
2023/09/27 02:45:54;;;;;;;2.70;2.60;;;;;;;15.95;60.07;101799.34;5033109;27;97076;-55
2023/09/27 02:48:19;;;;;;;3.47;3.27;;;;;;;15.94;60.13;101799.84;5035555;27;97373;-55
2023/09/27 02:50:49;;;;;;;3.90;3.50;;;;;;;15.91;60.27;101795.28;5036786;27;97040;-55
2023/09/27 02:53:14;;;;;;;3.03;2.93;;;;;;;15.84;60.15;101798.53;5034035;27;97420;-55
2023/09/27 02:55:40;;;;;;;3.03;2.90;;;;;;;15.80;60.12;101798.78;5034409;27;97667;-55
2023/09/27 02:58:05;;;;;;;2.77;2.60;;;;;;;15.74;60.12;101801.56;5033851;27;104352;-55
2023/09/27 03:00:33;;;;;;;2.73;2.53;;;;;;;15.71;60.22;101810.13;5036254;27;101459;-55
2023/09/27 03:03:00;;;;;;;3.23;2.80;;;;;;;15.68;60.23;101814.66;5034278;27;97244;-55
2023/09/27 03:05:26;;;;;;;2.93;2.73;;;;;;;15.65;60.05;101809.34;5034174;27;96748;-55
2023/09/27 03:07:52;;;;;;;3.43;3.23;;;;;;;15.63;60.13;101806.31;5031612;27;96772;-55
2023/09/27 03:10:18;;;;;;;2.83;2.73;;;;;;;15.62;60.09;101813.88;5031514;27;97352;-55
2023/09/27 03:12:47;;;;;;;2.93;2.80;;;;;;;15.61;60.10;101819.94;5034221;27;100665;-55
2023/09/27 03:15:13;;;;;;;2.97;2.77;;;;;;;15.60;60.25;101819.16;5032793;27;96986;-55
2023/09/27 03:17:39;;;;;;;3.90;2.73;;;;;;;15.61;60.22;101819.94;5034846;27;97384;-55
2023/09/27 03:20:08;;;;;;;3.30;3.10;;;;;;;15.60;60.22;101826.72;5033538;27;97138;-55
2023/09/27 03:22:34;;;;;;;2.90;2.80;;;;;;;15.59;60.00;101834.31;5032257;27;96871;-55
2023/09/27 03:25:00;;;;;;;2.90;2.70;;;;;;;15.59;59.76;101817.66;5034113;27;97726;-55
2023/09/27 03:27:25;;;;;;;3.40;3.10;;;;;;;15.55;59.90;101821.94;5033310;27;97190;-55
2023/09/27 03:29:50;;;;;;;3.00;2.80;;;;;;;15.51;59.81;101821.38;5030749;27;97351;-56
2023/09/27 03:32:16;;;;;;;2.73;2.63;;;;;;;15.47;59.90;101820.88;5031468;27;96857;-55
2023/09/27 03:34:41;;;;;;;3.23;2.93;;;;;;;15.46;60.00;101825.69;5035776;27;97043;-55
2023/09/27 03:37:06;;;;;;;5.77;3.07;;;;;;;15.43;60.00;101823.09;5035439;27;97360;-55
2023/09/27 03:39:35;;;;;;;3.43;3.20;;;;;;;15.39;59.91;101822.56;5036034;27;97272;-55
2023/09/27 03:42:02;;;;;;;3.10;2.80;;;;;;;15.38;59.88;101821.81;5038450;27;98870;-55
2023/09/27 03:44:27;;;;;;;3.00;2.70;;;;;;;15.35;59.89;101819.28;5035059;27;97360;-55
2023/09/27 03:46:53;;;;;;;2.93;2.73;;;;;;;15.32;59.85;101814.72;5033351;27;112541;-55
2023/09/27 03:49:18;;;;;;;3.03;2.73;;;;;;;15.28;59.72;101822.53;5036507;27;96988;-55
2023/09/27 03:51:44;;;;;;;5.10;3.10;;;;;;;15.25;59.90;101823.50;5030440;27;97357;-55
2023/09/27 03:54:09;;;;;;;2.77;2.57;;;;;;;15.19;59.93;101825.50;5040413;27;96812;-55
2023/09/27 03:56:34;;;;;;;3.13;2.93;;;;;;;15.17;59.97;101820.44;5034808;27;97461;-55
2023/09/27 03:59:00;;;;;;;2.83;2.63;;;;;;;15.15;59.94;101830.50;5035432;27;97572;-55
2023/09/27 04:01:25;;;;;;;2.93;2.63;;;;;;;15.09;60.08;101835.28;5035468;27;96802;-55
2023/09/27 04:03:51;;;;;;;3.00;2.80;;;;;;;15.03;59.98;101829.69;5036793;27;97403;-55
2023/09/27 04:06:16;;;;;;;3.17;2.97;;;;;;;14.97;59.95;101820.56;5035550;27;97689;-54
2023/09/27 04:08:41;;;;;;;2.67;2.47;;;;;;;14.94;59.87;101824.31;5032600;27;108918;-55
2023/09/27 04:11:08;;;;;;;2.63;2.37;;;;;;;14.92;60.06;101833.16;5033348;27;97430;-55
2023/09/27 04:13:34;;;;;;;2.60;2.40;;;;;;;14.92;60.16;101837.91;5037835;27;97271;-55
2023/09/27 04:16:00;;;;;;;2.70;2.60;;;;;;;14.92;60.14;101837.91;5037632;27;98018;-55
2023/09/27 04:18:26;;;;;;;3.23;3.03;;;;;;;14.91;60.23;101841.97;5039598;27;97040;-55
2023/09/27 04:20:52;;;;;;;3.13;2.93;;;;;;;14.90;60.06;101827.34;5035951;27;97203;-55
2023/09/27 04:23:17;;;;;;;2.80;2.60;;;;;;;14.89;60.13;101827.84;5036456;27;96817;-55
2023/09/27 04:25:43;;;;;;;2.83;2.63;;;;;;;14.83;59.96;101833.31;5039785;27;97353;-55
2023/09/27 04:28:10;;;;;;;2.80;2.60;;;;;;;14.79;60.02;101848.66;5038014;27;97667;-55
2023/09/27 04:30:35;;;;;;;3.73;2.97;;;;;;;14.75;60.22;101850.91;5036001;27;96964;-55
2023/09/27 04:33:00;;;;;;;2.80;2.70;;;;;;;14.76;60.26;101852.44;5037921;27;97107;-55
2023/09/27 04:35:26;;;;;;;3.27;2.80;;;;;;;14.76;60.23;101858.75;5035903;27;97351;-55
2023/09/27 04:37:51;;;;;;;3.30;3.10;;;;;;;14.75;60.11;101851.66;5036001;27;99558;-55
2023/09/27 04:40:17;;;;;;;2.93;2.83;;;;;;;14.72;60.12;101855.41;5039032;27;97332;-55
2023/09/27 04:42:44;;;;;;;3.00;2.80;;;;;;;14.69;59.94;101850.88;5033807;27;97111;-55
2023/09/27 04:45:13;;;;;;;3.03;2.83;;;;;;;14.66;60.13;101851.84;5038032;27;97416;-55
2023/09/27 04:47:40;;;;;;;3.37;3.17;;;;;;;14.64;60.01;101846.03;5034637;27;97214;-55
2023/09/27 04:50:10;;;;;;;3.40;3.20;;;;;;;14.63;60.06;101838.22;5034813;27;97053;-54
2023/09/27 04:52:37;;;;;;;2.60;2.50;;;;;;;14.62;60.18;101833.91;5034214;27;96888;-55
2023/09/27 04:55:02;;;;;;;2.83;2.73;;;;;;;14.57;60.08;101834.66;5031377;27;98107;-55
2023/09/27 04:57:27;;;;;;;2.37;2.27;;;;;;;14.57;60.17;101840.19;5035490;27;97283;-55
2023/09/27 04:59:53;;;;;;;3.07;2.87;;;;;;;14.56;60.21;101836.66;5037068;27;97292;-55
2023/09/27 05:02:20;;;;;;;3.60;3.00;;;;;;;14.56;60.32;101847.75;5034244;27;96744;-55
2023/09/27 05:04:47;;;;;;;3.40;3.17;;;;;;;14.56;60.19;101844.19;5035396;27;98171;-55
2023/09/27 05:07:15;;;;;;;3.83;2.77;;;;;;;14.53;60.21;101851.47;5038058;27;97534;-55
2023/09/27 05:09:41;;;;;;;3.07;2.87;;;;;;;14.54;60.32;101855.78;5033232;27;96870;-55
2023/09/27 05:12:06;;;;;;;2.60;2.50;;;;;;;14.55;60.31;101850.97;5035675;27;96751;-55
2023/09/27 05:14:32;;;;;;;3.00;2.90;;;;;;;14.52;60.08;101858.28;5036466;27;97497;-55
2023/09/27 05:16:57;;;;;;;3.23;3.03;;;;;;;14.51;60.06;101861.53;5036719;27;96787;-56
2023/09/27 05:19:22;;;;;;;3.17;2.97;;;;;;;14.48;60.08;101862.53;5038195;27;97352;-55
2023/09/27 05:21:48;;;;;;;3.13;2.90;;;;;;;14.47;60.24;101864.53;5036065;27;97020;-55
2023/09/27 05:24:13;;;;;;;2.93;2.80;;;;;;;14.49;60.16;101872.31;5033791;27;97117;-55
2023/09/27 05:26:38;;;;;;;2.50;2.40;;;;;;;14.47;60.23;101878.38;5032811;27;107928;-54
2023/09/27 05:29:04;;;;;;;3.30;3.00;;;;;;;14.46;60.08;101876.84;5034502;27;97002;-55
2023/09/27 05:31:29;;;;;;;3.20;2.90;;;;;;;14.45;60.16;101875.31;5035667;27;97314;-55
2023/09/27 05:33:54;;;;;;;3.03;2.50;;;;;;;14.42;60.16;101876.28;5032251;27;97414;-55
2023/09/27 05:36:19;;;;;;;3.10;3.00;;;;;;;14.39;60.05;101884.84;5034660;27;109628;-55
2023/09/27 05:38:46;;;;;;;3.07;2.77;;;;;;;14.36;60.25;101883.03;5040037;27;98113;-55
2023/09/27 05:41:11;;;;;;;3.17;2.97;;;;;;;14.30;60.16;101880.22;5036078;27;97051;-55
2023/09/27 05:43:37;;;;;;;3.07;2.87;;;;;;;14.26;60.11;101885.91;5034863;27;97277;-55
2023/09/27 05:46:02;;;;;;;3.73;3.27;;;;;;;14.25;60.32;101886.41;5035141;27;97263;-55
2023/09/27 05:48:28;;;;;;;3.83;3.43;;;;;;;14.26;60.23;101885.19;5039974;27;97128;-55
2023/09/27 05:50:53;;;;;;;2.67;2.50;;;;;;;14.25;60.21;101881.66;5036347;27;96972;-55
2023/09/27 05:53:19;;;;;;;3.73;3.33;;;;;;;14.26;60.41;101879.66;5032447;27;97924;-55
2023/09/27 05:55:44;;;;;;;3.33;3.03;;;;;;;14.25;60.19;101876.13;5035052;27;110441;-55
2023/09/27 05:58:10;;;;;;;3.30;3.07;;;;;;;14.28;60.25;101872.34;5037210;27;99947;-55
2023/09/27 06:00:40;;;;;;;3.20;3.00;;;;;;;14.27;60.45;101868.06;5032672;27;97629;-55
2023/09/27 06:03:05;;;;;;;2.87;2.73;;;;;;;14.28;60.21;101869.59;5037383;27;98979;-55
2023/09/27 06:05:32;;;;;;;3.10;2.90;;;;;;;14.30;60.40;101860.84;5034979;27;97651;-55
2023/09/27 06:07:58;;;;;;;3.17;2.87;;;;;;;14.31;60.45;101864.38;5036406;27;96907;-55
2023/09/27 06:10:23;;;;;;;3.40;3.07;;;;;;;14.31;60.40;101856.81;5032747;27;97124;-55
2023/09/27 06:12:48;;;;;;;2.70;2.60;;;;;;;14.33;60.59;101859.84;5033785;27;97238;-55
2023/09/27 06:15:14;;;;;;;2.93;2.73;;;;;;;14.35;60.62;101851.06;5035499;27;97174;-55
2023/09/27 06:17:42;;;;;;;3.80;3.50;;;;;;;14.36;60.45;101849.81;5035051;27;97174;-55
2023/09/27 06:20:11;;;;;;;2.70;2.60;;;;;;;14.38;60.50;101855.59;5033208;27;97275;-54
2023/09/27 06:22:37;;;;;;;3.43;3.23;;;;;;;14.38;60.69;101850.06;5035871;27;97576;-55
2023/09/27 06:25:04;;;;;;;3.03;2.83;;;;;;;14.41;60.69;101847.09;5036176;27;97792;-55
2023/09/27 06:27:29;;;;;;;2.90;2.70;;;;;;;14.43;60.76;101847.38;5035840;27;97088;-55
2023/09/27 06:29:55;;;;;;;3.10;2.90;;;;;;;14.47;60.67;101830.53;5033995;27;96968;-55
2023/09/27 06:32:22;;;;;;;3.47;2.60;;;;;;;14.47;60.52;101831.28;5032393;27;97043;-54
2023/09/27 06:34:47;;;;;;;2.93;2.73;;;;;;;14.47;60.75;101831.28;5031518;27;98025;-55
2023/09/27 06:37:13;;;;;;;5.17;3.33;;;;;;;14.46;60.92;101840.84;5034271;27;100744;-55
2023/09/27 06:39:41;;;;;;;2.80;2.70;;;;;;;14.49;60.99;101836.34;5033690;27;96946;-55
2023/09/27 06:42:07;;;;;;;3.50;3.30;;;;;;;14.51;61.04;101837.38;5032433;27;97263;-55
2023/09/27 06:44:34;;;;;;;4.10;3.70;;;;;;;14.56;61.05;101828.34;5033244;27;96741;-55
2023/09/27 06:46:59;;;;;;;3.57;3.37;;;;;;;14.58;61.00;101834.16;5039177;27;97225;-55
2023/09/27 06:49:25;;;;;;;3.60;3.30;;;;;;;14.64;61.02;101839.72;5032071;27;97344;-54
2023/09/27 06:51:50;;;;;;;3.13;2.83;;;;;;;14.69;61.12;101841.78;5033680;27;97078;-54
2023/09/27 06:54:15;;;;;;;3.47;3.27;;;;;;;14.71;61.14;101834.50;5034294;27;97199;-54
2023/09/27 06:56:42;;;;;;;3.33;3.10;;;;;;;14.74;61.22;101850.13;5035752;27;97221;-55
2023/09/27 06:59:08;;;;;;;4.93;3.00;;;;;;;14.79;61.30;101852.19;5034285;27;97072;-55
2023/09/27 07:01:33;;;;;;;3.07;2.87;;;;;;;14.84;61.22;101859.81;5031747;27;97303;-55
2023/09/27 07:03:58;;;;;;;3.07;2.90;;;;;;;14.90;61.47;101873.69;5032689;27;97108;-55
2023/09/27 07:06:24;;;;;;;3.60;3.30;;;;;;;14.96;61.50;101874.50;5035270;27;104197;-54
2023/09/27 07:08:53;;;;;;;3.00;2.80;;;;;;;15.02;61.37;101881.59;5037854;27;96906;-55
2023/09/27 07:11:21;;;;;;;3.13;2.93;;;;;;;15.08;61.44;101891.94;5036567;27;97017;-55
2023/09/27 07:13:46;;;;;;;2.90;2.70;;;;;;;15.15;61.42;101889.50;5036837;27;97188;-55
2023/09/27 07:16:29;;;;;;;3.10;2.90;;;;;;;15.23;61.85;101889.78;5035886;27;96734;-54
2023/09/27 07:18:59;;;;;;;3.30;3.10;;;;;;;15.28;61.51;101889.06;5036117;27;97113;-55
2023/09/27 07:21:24;;;;;;;2.90;2.70;;;;;;;15.34;61.70;101893.41;5034407;27;98053;-55
2023/09/27 07:23:51;;;;;;;2.27;2.17;;;;;;;15.42;61.77;101896.47;5041231;27;97120;-55
2023/09/27 07:26:17;;;;;;;5.73;2.87;;;;;;;15.51;61.86;101894.28;5037215;27;101726;-55
2023/09/27 07:28:42;;;;;;;2.77;2.57;;;;;;;15.58;61.97;101904.91;5037393;27;97234;-55
2023/09/27 07:31:08;;;;;;;2.30;2.20;;;;;;;15.69;61.90;101904.19;5036809;27;97760;-55
2023/09/27 07:33:33;;;;;;;2.50;2.40;;;;;;;15.79;61.90;101897.19;5037886;27;97177;-55
2023/09/27 07:35:59;;;;;;;2.63;2.53;;;;;;;15.88;62.06;101899.00;5034560;27;97060;-55
2023/09/27 07:38:25;;;;;;;3.10;2.90;;;;;;;15.98;62.00;101895.50;5037511;27;96738;-55
2023/09/27 07:40:51;;;;;;;2.90;2.77;;;;;;;16.08;61.98;101896.00;5035768;27;97539;-55
2023/09/27 07:43:16;;;;;;;3.23;3.03;;;;;;;16.19;61.97;101880.16;5040444;27;96786;-55
2023/09/27 07:45:42;;;;;;;3.57;3.10;;;;;;;16.28;62.15;101888.25;5038410;27;96663;-55
2023/09/27 07:48:08;;;;;;;3.40;3.10;;;;;;;16.40;61.90;101887.00;5036248;27;96880;-55
2023/09/27 07:50:37;;;;;;;3.40;3.03;;;;;;;16.53;62.13;101899.69;5041153;27;97384;-55
2023/09/27 07:53:03;;;;;;;2.70;2.60;;;;;;;16.63;62.17;101892.63;5034785;27;97368;-55
2023/09/27 07:55:46;;;;;;;3.20;2.90;;;;;;;16.77;62.40;101886.06;5034244;27;97309;-55
2023/09/27 07:58:12;;;;;;;2.87;2.67;;;;;;;16.90;62.37;101883.53;5037619;27;97239;-55
2023/09/27 08:00:40;;;;;;;3.00;2.80;;;;;;;17.02;62.30;101894.13;5033638;27;97260;-55
2023/09/27 08:03:07;;;;;;;3.30;3.10;;;;;;;17.16;62.56;101903.47;5032994;27;97174;-55
2023/09/27 08:05:33;;;;;;;3.27;2.97;;;;;;;17.31;62.79;101909.53;5034144;27;96742;-55
2023/09/27 08:07:59;;;;;;;2.70;2.60;;;;;;;17.49;62.76;101913.78;5036463;27;96993;-55
2023/09/27 08:10:25;;;;;;;2.93;2.63;;;;;;;17.63;62.94;101912.75;5037016;27;97138;-55
2023/09/27 08:12:50;;;;;;;3.80;3.60;;;;;;;17.78;62.91;101919.53;5035798;27;97237;-55
2023/09/27 08:15:17;;;;;;;3.57;3.20;;;;;;;17.93;63.22;101924.81;5034796;27;96763;-55
2023/09/27 08:17:43;;;;;;;4.07;3.30;;;;;;;18.06;62.95;101921.44;5035722;27;97413;-55
2023/09/27 08:20:12;;;;;;;3.37;2.87;;;;;;;18.17;62.90;101916.59;5033859;27;97400;-55
2023/09/27 08:22:41;;;;;;;3.50;3.30;;;;;;;18.31;63.31;101928.66;5034401;27;96905;-55
2023/09/27 08:25:14;;;;;;;4.00;2.77;;;;;;;18.48;63.22;101932.88;5036698;27;96931;-55
2023/09/27 08:27:43;;;;;;;3.30;3.00;;;;;;;18.63;63.04;101924.19;5035868;27;96753;-55
2023/09/27 08:30:11;;;;;;;3.10;2.50;;;;;;;18.78;63.11;101940.53;5034261;27;96915;-55
2023/09/27 08:32:38;;;;;;;2.83;2.63;;;;;;;18.90;63.25;101923.19;5033497;27;97519;-55
2023/09/27 08:35:04;;;;;;;3.50;3.00;;;;;;;19.03;63.12;101928.91;5037652;27;96740;-56
2023/09/27 08:37:30;;;;;;;2.90;2.70;;;;;;;19.19;63.29;101925.22;5041574;27;97034;-56
2023/09/27 08:39:56;;;;;;;2.90;2.70;;;;;;;19.36;62.83;101919.50;5034184;27;96939;-55
2023/09/27 08:42:22;;;;;;;2.83;2.43;;;;;;;19.49;63.04;101925.19;5036191;27;102068;-56
2023/09/27 08:44:49;;;;;;;3.30;3.00;;;;;;;19.63;63.06;101920.50;5034948;27;97347;-55
2023/09/27 08:47:16;;;;;;;2.87;2.67;;;;;;;19.73;62.96;101924.41;5034618;27;96632;-55
2023/09/27 08:49:41;;;;;;;2.70;2.50;;;;;;;19.83;62.85;101922.78;5038862;27;98550;-56
2023/09/27 08:52:08;;;;;;;2.73;2.53;;;;;;;19.90;62.65;101930.56;5037501;27;97696;-55
2023/09/27 08:54:34;;;;;;;3.10;2.53;;;;;;;19.98;62.82;101923.09;5036928;27;97101;-55
2023/09/27 08:57:02;;;;;;;2.57;2.37;;;;;;;20.07;62.87;101933.91;5036191;27;97240;-55
2023/09/27 08:59:28;;;;;;;2.87;2.67;;;;;;;20.15;63.02;101932.03;5034605;27;97761;-55
2023/09/27 09:01:54;;;;;;;2.60;2.40;;;;;;;20.24;62.93;101939.31;5037699;27;97276;-55
2023/09/27 09:04:19;;;;;;;3.00;2.73;;;;;;;20.34;62.74;101943.22;5034936;27;97270;-56
2023/09/27 09:06:45;;;;;;;2.47;2.37;;;;;;;20.44;62.87;101941.56;5037346;27;96781;-56
2023/09/27 09:09:11;;;;;;;2.70;2.53;;;;;;;20.52;62.68;101940.41;5032546;27;96690;-56
2023/09/27 09:11:54;;;;;;;3.20;2.90;;;;;;;20.65;62.80;101932.09;5033915;27;97501;-56
2023/09/27 09:14:37;;;;;;;3.73;2.60;;;;;;;20.78;62.74;101929.34;5033949;27;96720;-56
2023/09/27 09:17:02;;;;;;;2.90;2.70;;;;;;;20.88;62.50;101921.31;5033992;27;97440;-55
2023/09/27 09:19:28;;;;;;;2.87;2.67;;;;;;;20.99;62.12;101915.50;5036590;27;98065;-56
2023/09/27 09:22:08;;;;;;;2.93;2.73;;;;;;;21.07;61.89;101902.44;5036841;27;96772;-55
2023/09/27 09:24:41;;;;;;;3.03;2.83;;;;;;;21.12;61.75;101901.56;5035938;27;97249;-55
2023/09/27 09:27:09;;;;;;;3.07;2.60;;;;;;;21.20;61.82;101896.84;5036552;27;96728;-56
2023/09/27 09:29:51;;;;;;;2.73;2.53;;;;;;;21.32;61.48;101892.53;5035553;27;96845;-56
2023/09/27 09:32:19;;;;;;;2.90;2.70;;;;;;;21.48;61.65;101883.06;5034011;27;97068;-56
2023/09/27 09:34:49;;;;;;;2.97;2.77;;;;;;;21.62;61.88;101872.63;5033110;27;96697;-56
2023/09/27 09:37:23;;;;;;;2.63;2.47;;;;;;;21.73;61.61;101864.00;5036483;27;97123;-56
2023/09/27 09:39:50;;;;;;;3.10;2.63;;;;;;;21.82;61.30;101860.72;5035267;27;97342;-55
2023/09/27 09:42:31;;;;;;;3.60;2.20;;;;;;;21.95;60.90;101852.31;5036383;27;97127;-55
2023/09/27 09:45:12;;;;;;;2.80;2.60;;;;;;;22.05;60.65;101852.59;5035042;27;97077;-56
2023/09/27 09:47:43;;;;;;;2.50;2.30;;;;;;;22.16;60.58;101839.09;5031558;27;96951;-57
2023/09/27 09:50:16;;;;;;;2.37;2.27;;;;;;;22.28;60.70;101840.31;5033805;27;97000;-56
2023/09/27 09:52:50;;;;;;;2.43;2.20;;;;;;;22.41;60.41;101830.38;5034041;27;96815;-56
2023/09/27 09:55:20;;;;;;;2.63;2.43;;;;;;;22.55;59.98;101823.38;5033800;27;97294;-56
2023/09/27 09:57:46;;;;;;;2.60;2.40;;;;;;;22.69;60.19;101831.19;5035047;27;97211;-56
2023/09/27 10:00:18;;;;;;;3.07;2.70;;;;;;;22.81;59.99;101817.63;5032685;27;97352;-55
2023/09/27 10:02:54;;;;;;;2.00;1.90;;;;;;;22.91;59.77;101810.22;5035086;27;97265;-56
2023/09/27 10:05:23;;;;;;;3.77;2.07;;;;;;;22.99;59.76;101806.16;5035831;27;97261;-56
2023/09/27 10:07:50;;;;;;;2.97;2.20;;;;;;;23.10;59.35;101802.28;5035256;27;97620;-56
2023/09/27 10:10:20;;;;;;;2.33;2.23;;;;;;;23.27;59.16;101799.00;5030268;27;97001;-56
2023/09/27 10:12:49;;;;;;;5.83;1.50;;;;;;;23.41;59.08;101798.38;5035057;27;97068;-56
2023/09/27 10:15:20;;;;;;;1.90;1.80;;;;;;;23.54;58.39;101789.81;5033648;27;97677;-56
2023/09/27 10:17:45;;;;;;;2.83;1.90;;;;;;;23.67;57.99;101791.72;5036383;27;96713;-56
2023/09/27 10:20:13;;;;;;;1.87;1.77;;;;;;;23.81;57.97;101802.25;5033963;27;97434;-56
2023/09/27 10:22:44;;;;;;;2.00;1.90;;;;;;;24.00;57.63;101810.38;5035668;27;99241;-56
2023/09/27 10:25:27;;;;;;;1.60;1.50;;;;;;;24.19;56.22;101807.22;5033210;27;97156;-56
2023/09/27 10:27:59;;;;;;;2.13;1.97;;;;;;;24.36;56.77;101816.63;5033865;27;96655;-56
2023/09/27 10:30:24;;;;;;;1.90;1.80;;;;;;;24.51;56.43;101819.44;5034955;27;96894;-56
2023/09/27 10:33:15;;;;;;;2.03;1.83;;;;;;;24.58;55.00;101818.69;5033918;27;96802;-56
2023/09/27 10:36:01;;;;;;;1.50;1.40;;;;;;;24.66;54.80;101824.31;5034438;27;97067;-56
2023/09/27 10:38:42;;;;;;;2.40;1.80;;;;;;;24.70;55.58;101815.50;5023624;27;97182;-56
2023/09/27 10:41:07;;;;;;;1.73;1.43;;;;;;;24.75;55.99;101817.41;5034631;27;97530;-56
2023/09/27 10:43:36;;;;;;;2.80;1.70;;;;;;;24.81;56.20;101813.09;5035371;27;97003;-56
2023/09/27 10:46:04;;;;;;;3.37;2.10;;;;;;;24.84;56.72;101800.69;5036540;27;97077;-56
2023/09/27 10:48:37;;;;;;;1.60;1.50;;;;;;;24.88;55.88;101801.06;5041925;27;97019;-56
2023/09/27 10:51:03;;;;;;;1.63;1.53;;;;;;;24.93;56.04;101800.09;5042599;27;98937;-56
2023/09/27 10:53:29;;;;;;;1.80;1.70;;;;;;;25.01;56.02;101803.66;5036811;27;97264;-56
2023/09/27 10:55:55;;;;;;;2.10;2.00;;;;;;;25.06;55.21;101801.97;5038522;27;98471;-56
2023/09/27 10:58:20;;;;;;;1.60;1.50;;;;;;;25.14;55.04;101800.63;5034399;27;96893;-56
2023/09/27 11:00:51;;;;;;;1.47;1.37;;;;;;;25.19;54.47;101805.31;5034818;27;96923;-56
2023/09/27 11:03:17;;;;;;;1.53;1.40;;;;;;;25.25;54.37;101803.03;5036411;27;97641;-56
2023/09/27 11:05:43;;;;;;;1.20;1.20;;;;;;;25.34;54.04;101804.50;5040908;27;96759;-56
2023/09/27 11:08:08;;;;;;;2.03;1.60;;;;;;;25.37;54.23;101803.38;5036875;27;96816;-56
2023/09/27 11:10:35;;;;;;;1.83;1.70;;;;;;;25.40;54.32;101799.44;5036668;27;105803;-56
2023/09/27 11:13:09;;;;;;;2.73;1.50;;;;;;;25.44;53.63;101804.69;5034494;27;97135;-57
2023/09/27 11:15:36;;;;;;;1.67;1.57;;;;;;;25.45;54.05;101800.53;5036049;27;96839;-56
2023/09/27 11:18:04;;;;;;;1.30;1.23;;;;;;;25.47;54.15;101803.56;5033198;27;96735;-57
2023/09/27 11:20:29;;;;;;;1.80;1.70;;;;;;;25.46;54.08;101790.78;5036038;27;96945;-56
2023/09/27 11:22:59;;;;;;;1.63;1.53;;;;;;;25.48;53.99;101788.88;5037331;27;97284;-56